sensor_id;sensor_type;location;lat;lon;timestamp;pressure;altitude;pressure_sealevel;temperature;humidity
74895;BME280;63447;49.446;8.666;2023-02-01T00:02:24;101150.47;;;4.91;83.55
74895;BME280;63447;49.446;8.666;2023-02-01T00:04:50;101141.69;;;4.94;83.66
74895;BME280;63447;49.446;8.666;2023-02-01T00:07:16;101118.22;;;4.88;83.26
74895;BME280;63447;49.446;8.666;2023-02-01T00:09:44;101123.69;;;4.93;82.95
74895;BME280;63447;49.446;8.666;2023-02-01T00:12:12;101128.31;;;4.97;83.54
74895;BME280;63447;49.446;8.666;2023-02-01T00:14:37;101118.72;;;4.95;83.14
74895;BME280;63447;49.446;8.666;2023-02-01T00:17:05;101133.78;;;5.02;83.34
74895;BME280;63447;49.446;8.666;2023-02-01T00:19:36;101126.09;;;5.04;83.61
74895;BME280;63447;49.446;8.666;2023-02-01T00:22:01;101115.19;;;4.99;83.55
74895;BME280;63447;49.446;8.666;2023-02-01T00:24:29;101085.13;;;4.84;83.62
74895;BME280;63447;49.446;8.666;2023-02-01T00:26:54;101093.84;;;5.01;83.16
74895;BME280;63447;49.446;8.666;2023-02-01T00:29:23;101104.75;;;5.11;82.73
74895;BME280;63447;49.446;8.666;2023-02-01T00:31:50;101106.13;;;5.09;83.95
74895;BME280;63447;49.446;8.666;2023-02-01T00:34:16;101096.00;;;5.09;82.96
74895;BME280;63447;49.446;8.666;2023-02-01T00:36:43;101102.03;;;5.06;83.32
74895;BME280;63447;49.446;8.666;2023-02-01T00:39:09;101074.97;;;5.00;82.78
74895;BME280;63447;49.446;8.666;2023-02-01T00:41:35;101075.78;;;4.95;83.53
74895;BME280;63447;49.446;8.666;2023-02-01T00:44:03;101093.56;;;5.08;83.57
74895;BME280;63447;49.446;8.666;2023-02-01T00:46:35;101094.66;;;5.07;83.20
74895;BME280;63447;49.446;8.666;2023-02-01T00:49:05;101096.03;;;4.99;83.55
74895;BME280;63447;49.446;8.666;2023-02-01T00:51:32;101072.84;;;4.82;84.02
74895;BME280;63447;49.446;8.666;2023-02-01T00:53:57;101100.41;;;5.00;84.43
74895;BME280;63447;49.446;8.666;2023-02-01T00:56:27;101089.19;;;4.97;84.36
74895;BME280;63447;49.446;8.666;2023-02-01T00:58:53;101076.38;;;4.82;84.66
74895;BME280;63447;49.446;8.666;2023-02-01T01:01:20;101088.09;;;5.03;83.12
74895;BME280;63447;49.446;8.666;2023-02-01T01:03:52;101085.94;;;4.90;84.15
74895;BME280;63447;49.446;8.666;2023-02-01T01:06:22;101096.34;;;4.93;84.03
74895;BME280;63447;49.446;8.666;2023-02-01T01:08:51;101098.22;;;5.02;83.65
74895;BME280;63447;49.446;8.666;2023-02-01T01:11:19;101087.81;;;4.99;83.65
74895;BME280;63447;49.446;8.666;2023-02-01T01:13:51;101091.38;;;5.05;83.01
74895;BME280;63447;49.446;8.666;2023-02-01T01:16:18;101099.31;;;5.01;83.40
74895;BME280;63447;49.446;8.666;2023-02-01T01:18:46;101099.06;;;4.93;84.13
74895;BME280;63447;49.446;8.666;2023-02-01T01:21:16;101104.78;;;5.01;83.78
74895;BME280;63447;49.446;8.666;2023-02-01T01:23:47;101103.41;;;4.99;83.52
74895;BME280;63447;49.446;8.666;2023-02-01T01:26:18;101086.19;;;4.98;84.00
74895;BME280;63447;49.446;8.666;2023-02-01T01:28:44;101090.00;;;4.97;83.39
74895;BME280;63447;49.446;8.666;2023-02-01T01:31:13;101098.22;;;5.07;83.04
74895;BME280;63447;49.446;8.666;2023-02-01T01:33:41;101082.34;;;5.09;83.13
74895;BME280;63447;49.446;8.666;2023-02-01T01:36:10;101094.38;;;5.08;83.14
74895;BME280;63447;49.446;8.666;2023-02-01T01:38:43;101099.84;;;5.08;83.45
74895;BME280;63447;49.446;8.666;2023-02-01T01:41:13;101094.09;;;5.05;83.75
74895;BME280;63447;49.446;8.666;2023-02-01T01:46:30;101067.63;;;4.90;83.99
74895;BME280;63447;49.446;8.666;2023-02-01T01:49:10;101099.56;;;5.10;83.50
74895;BME280;63447;49.446;8.666;2023-02-01T01:51:45;101071.66;;;5.13;82.19
74895;BME280;63447;49.446;8.666;2023-02-01T01:54:43;101079.06;;;5.13;83.18
74895;BME280;63447;49.446;8.666;2023-02-01T01:57:45;101076.31;;;5.13;82.95
74895;BME280;63447;49.446;8.666;2023-02-01T02:00:18;101068.66;;;5.20;82.32
74895;BME280;63447;49.446;8.666;2023-02-01T02:02:48;101071.66;;;5.18;82.79
74895;BME280;63447;49.446;8.666;2023-02-01T02:05:17;101040.84;;;4.87;82.81
74895;BME280;63447;49.446;8.666;2023-02-01T02:07:46;101068.69;;;5.04;83.73
74895;BME280;63447;49.446;8.666;2023-02-01T02:10:15;101061.84;;;5.02;83.88
74895;BME280;63447;49.446;8.666;2023-02-01T02:12:46;101047.94;;;4.88;84.13
74895;BME280;63447;49.446;8.666;2023-02-01T02:15:14;101059.13;;;4.97;83.06
74895;BME280;63447;49.446;8.666;2023-02-01T02:23:48;101074.69;;;5.01;83.87
74895;BME280;63447;49.446;8.666;2023-02-01T02:38:26;101054.78;;;4.91;84.03
74895;BME280;63447;49.446;8.666;2023-02-01T02:44:08;101030.13;;;5.01;83.72
74895;BME280;63447;49.446;8.666;2023-02-01T02:47:03;101034.81;;;4.85;83.92
74895;BME280;63447;49.446;8.666;2023-02-01T02:53:21;101027.19;;;4.82;84.68
74895;BME280;63447;49.446;8.666;2023-02-01T02:56:10;101009.69;;;4.78;84.30
74895;BME280;63447;49.446;8.666;2023-02-01T02:58:58;101012.97;;;4.85;84.30
74895;BME280;63447;49.446;8.666;2023-02-01T03:01:43;101020.06;;;4.91;84.30
74895;BME280;63447;49.446;8.666;2023-02-01T03:04:29;101023.31;;;4.93;83.22
74895;BME280;63447;49.446;8.666;2023-02-01T03:06:57;101004.47;;;4.92;83.69
74895;BME280;63447;49.446;8.666;2023-02-01T03:09:31;101024.09;;;5.04;83.62
74895;BME280;63447;49.446;8.666;2023-02-01T03:12:01;101017.81;;;4.98;84.27
74895;BME280;63447;49.446;8.666;2023-02-01T03:14:53;101014.25;;;4.98;84.15
74895;BME280;63447;49.446;8.666;2023-02-01T03:17:24;100993.25;;;4.88;83.36
74895;BME280;63447;49.446;8.666;2023-02-01T03:19:52;101009.88;;;5.02;83.71
74895;BME280;63447;49.446;8.666;2023-02-01T03:22:24;101023.00;;;5.05;83.95
74895;BME280;63447;49.446;8.666;2023-02-01T03:24:57;101008.56;;;4.89;84.24
74895;BME280;63447;49.446;8.666;2023-02-01T03:32:45;101008.59;;;4.84;84.91
74895;BME280;63447;49.446;8.666;2023-02-01T03:40:58;101001.44;;;4.93;85.42
74895;BME280;63447;49.446;8.666;2023-02-01T03:43:29;100999.28;;;4.85;85.12
74895;BME280;63447;49.446;8.666;2023-02-01T03:46:01;101004.75;;;4.80;84.89
74895;BME280;63447;49.446;8.666;2023-02-01T03:48:29;101011.59;;;4.77;85.28
74895;BME280;63447;49.446;8.666;2023-02-01T03:50:57;101017.34;;;4.76;85.19
74895;BME280;63447;49.446;8.666;2023-02-01T03:53:25;100982.41;;;4.63;86.11
74895;BME280;63447;49.446;8.666;2023-02-01T03:55:54;101001.22;;;4.74;86.34
74895;BME280;63447;49.446;8.666;2023-02-01T03:58:22;101017.06;;;4.77;85.56
74895;BME280;63447;49.446;8.666;2023-02-01T04:00:52;101014.06;;;4.79;85.63
74895;BME280;63447;49.446;8.666;2023-02-01T04:03:19;101003.13;;;4.74;86.29
74895;BME280;63447;49.446;8.666;2023-02-01T04:05:44;101006.69;;;4.80;85.48
74895;BME280;63447;49.446;8.666;2023-02-01T04:08:09;101014.59;;;4.91;85.28
74895;BME280;63447;49.446;8.666;2023-02-01T04:10:35;101013.22;;;4.84;85.81
74895;BME280;63447;49.446;8.666;2023-02-01T04:13:02;101013.75;;;4.91;85.55
74895;BME280;63447;49.446;8.666;2023-02-01T04:15:28;101007.50;;;4.85;85.66
74895;BME280;63447;49.446;8.666;2023-02-01T04:17:57;101002.03;;;4.80;85.85
74895;BME280;63447;49.446;8.666;2023-02-01T04:20:23;101006.94;;;4.83;85.81
74895;BME280;63447;49.446;8.666;2023-02-01T04:22:48;101012.13;;;4.90;85.56
74895;BME280;63447;49.446;8.666;2023-02-01T04:25:18;100980.69;;;4.82;85.04
74895;BME280;63447;49.446;8.666;2023-02-01T04:27:46;100985.06;;;4.83;85.48
74895;BME280;63447;49.446;8.666;2023-02-01T04:30:11;100999.22;;;4.95;85.30
74895;BME280;63447;49.446;8.666;2023-02-01T04:32:37;100998.94;;;4.97;85.30
74895;BME280;63447;49.446;8.666;2023-02-01T04:35:03;100994.84;;;4.94;85.12
74895;BME280;63447;49.446;8.666;2023-02-01T04:37:28;101000.06;;;4.96;85.21
74895;BME280;63447;49.446;8.666;2023-02-01T04:39:56;100987.53;;;4.85;84.90
74895;BME280;63447;49.446;8.666;2023-02-01T04:42:21;100999.75;;;5.07;84.48
74895;BME280;63447;49.446;8.666;2023-02-01T04:44:47;100986.41;;;4.91;84.47
74895;BME280;63447;49.446;8.666;2023-02-01T04:47:12;100996.47;;;5.05;84.50
74895;BME280;63447;49.446;8.666;2023-02-01T04:49:38;101009.84;;;5.12;84.20
74895;BME280;63447;49.446;8.666;2023-02-01T04:52:03;101010.13;;;5.10;84.46
74895;BME280;63447;49.446;8.666;2023-02-01T04:54:29;100994.28;;;5.07;84.64
74895;BME280;63447;49.446;8.666;2023-02-01T04:56:54;100998.09;;;5.11;84.00
74895;BME280;63447;49.446;8.666;2023-02-01T04:59:24;100969.41;;;5.04;83.73
74895;BME280;63447;49.446;8.666;2023-02-01T05:01:50;100979.78;;;5.07;83.38
74895;BME280;63447;49.446;8.666;2023-02-01T05:04:15;100995.34;;;5.17;83.46
74895;BME280;63447;49.446;8.666;2023-02-01T05:06:40;100970.75;;;5.06;83.85
74895;BME280;63447;49.446;8.666;2023-02-01T05:09:06;100991.81;;;5.11;84.39
74895;BME280;63447;49.446;8.666;2023-02-01T05:11:36;100976.25;;;5.01;84.48
74895;BME280;63447;49.446;8.666;2023-02-01T05:14:23;100993.44;;;5.07;84.41
74895;BME280;63447;49.446;8.666;2023-02-01T05:16:49;100994.81;;;5.09;84.34
74895;BME280;63447;49.446;8.666;2023-02-01T05:19:14;101001.94;;;5.05;84.55
74895;BME280;63447;49.446;8.666;2023-02-01T05:21:39;100999.47;;;5.04;84.38
74895;BME280;63447;49.446;8.666;2023-02-01T05:24:04;101010.13;;;5.16;84.00
74895;BME280;63447;49.446;8.666;2023-02-01T05:26:42;101010.94;;;5.11;84.11
74895;BME280;63447;49.446;8.666;2023-02-01T05:29:11;101000.28;;;5.09;83.85
74895;BME280;63447;49.446;8.666;2023-02-01T05:31:36;100992.09;;;5.04;84.66
74895;BME280;63447;49.446;8.666;2023-02-01T05:34:02;101004.94;;;5.09;85.07
74895;BME280;63447;49.446;8.666;2023-02-01T05:36:29;101020.25;;;5.05;85.78
74895;BME280;63447;49.446;8.666;2023-02-01T05:38:57;100999.00;;;4.87;86.36
74895;BME280;63447;49.446;8.666;2023-02-01T05:41:22;101006.94;;;4.93;86.35
74895;BME280;63447;49.446;8.666;2023-02-01T05:43:50;101005.28;;;4.92;87.12
74895;BME280;63447;49.446;8.666;2023-02-01T05:46:15;101002.00;;;4.90;86.58
74895;BME280;63447;49.446;8.666;2023-02-01T05:48:43;100974.16;;;4.68;86.39
74895;BME280;63447;49.446;8.666;2023-02-01T05:51:14;101008.03;;;4.87;86.25
74895;BME280;63447;49.446;8.666;2023-02-01T05:53:39;101011.84;;;4.86;86.50
74895;BME280;63447;49.446;8.666;2023-02-01T05:56:04;101013.19;;;4.94;87.25
74895;BME280;63447;49.446;8.666;2023-02-01T05:58:30;101011.31;;;4.89;86.68
74895;BME280;63447;49.446;8.666;2023-02-01T06:00:55;101006.13;;;4.77;87.45
74895;BME280;63447;49.446;8.666;2023-02-01T06:03:23;101006.69;;;4.80;88.14
74895;BME280;63447;49.446;8.666;2023-02-01T06:05:48;100988.69;;;4.63;87.90
74895;BME280;63447;49.446;8.666;2023-02-01T06:08:14;100984.00;;;4.79;88.47
74895;BME280;63447;49.446;8.666;2023-02-01T06:10:42;100985.09;;;4.68;87.12
74895;BME280;63447;49.446;8.666;2023-02-01T06:13:07;101003.66;;;4.91;86.17
74895;BME280;63447;49.446;8.666;2023-02-01T06:15:34;100990.75;;;4.97;86.49
74895;BME280;63447;49.446;8.666;2023-02-01T06:18:00;101007.13;;;5.02;86.34
74895;BME280;63447;49.446;8.666;2023-02-01T06:20:25;101011.81;;;4.96;86.33
74895;BME280;63447;49.446;8.666;2023-02-01T06:22:50;101001.94;;;5.05;85.55
74895;BME280;63447;49.446;8.666;2023-02-01T06:25:18;101013.97;;;5.09;84.75
74895;BME280;63447;49.446;8.666;2023-02-01T06:27:44;101026.00;;;5.03;85.42
74895;BME280;63447;49.446;8.666;2023-02-01T06:30:11;101028.50;;;4.95;86.42
74895;BME280;63447;49.446;8.666;2023-02-01T06:32:39;101025.47;;;5.01;86.12
74895;BME280;63447;49.446;8.666;2023-02-01T06:35:06;100983.16;;;4.78;86.92
74895;BME280;63447;49.446;8.666;2023-02-01T06:37:32;101015.69;;;4.90;87.10
74895;BME280;63447;49.446;8.666;2023-02-01T06:39:58;101015.41;;;4.92;86.67
74895;BME280;63447;49.446;8.666;2023-02-01T06:42:23;100996.03;;;4.73;86.69
74895;BME280;63447;49.446;8.666;2023-02-01T06:44:49;101017.88;;;4.88;86.80
74895;BME280;63447;49.446;8.666;2023-02-01T06:47:14;101020.34;;;4.85;86.90
74895;BME280;63447;49.446;8.666;2023-02-01T06:49:39;101006.41;;;4.76;87.01
74895;BME280;63447;49.446;8.666;2023-02-01T06:52:05;101031.81;;;4.92;86.98
74895;BME280;63447;49.446;8.666;2023-02-01T06:54:31;101029.31;;;4.95;86.79
74895;BME280;63447;49.446;8.666;2023-02-01T06:56:58;101021.97;;;4.86;86.52
74895;BME280;63447;49.446;8.666;2023-02-01T06:59:24;101025.81;;;4.85;87.13
74895;BME280;63447;49.446;8.666;2023-02-01T07:01:49;101031.81;;;4.82;87.31
74895;BME280;63447;49.446;8.666;2023-02-01T07:04:15;101038.13;;;4.82;87.25
74895;BME280;63447;49.446;8.666;2023-02-01T07:06:40;101035.66;;;4.86;87.42
74895;BME280;63447;49.446;8.666;2023-02-01T07:09:06;101034.56;;;4.87;86.64
74895;BME280;63447;49.446;8.666;2023-02-01T07:11:32;100993.63;;;4.61;86.76
74895;BME280;63447;49.446;8.666;2023-02-01T07:13:57;101024.13;;;4.94;86.38
74895;BME280;63447;49.446;8.666;2023-02-01T07:16:25;101023.06;;;4.90;86.47
74895;BME280;63447;49.446;8.666;2023-02-01T07:18:51;101027.97;;;4.93;86.59
74895;BME280;63447;49.446;8.666;2023-02-01T07:21:19;101020.81;;;4.97;86.40
74895;BME280;63447;49.446;8.666;2023-02-01T07:23:48;101019.78;;;4.88;86.50
74895;BME280;63447;49.446;8.666;2023-02-01T07:26:14;101031.53;;;4.93;86.74
74895;BME280;63447;49.446;8.666;2023-02-01T07:28:43;101020.34;;;4.80;87.27
74895;BME280;63447;49.446;8.666;2023-02-01T07:31:17;101027.72;;;4.79;87.41
74895;BME280;63447;49.446;8.666;2023-02-01T07:33:48;101023.91;;;4.80;87.42
74895;BME280;63447;49.446;8.666;2023-02-01T07:36:19;101021.16;;;4.85;86.73
74895;BME280;63447;49.446;8.666;2023-02-01T07:38:45;101011.81;;;4.96;85.82
74895;BME280;63447;49.446;8.666;2023-02-01T07:41:12;101001.75;;;4.76;85.69
74895;BME280;63447;49.446;8.666;2023-02-01T07:43:37;101028.81;;;4.83;86.32
74895;BME280;63447;49.446;8.666;2023-02-01T07:46:04;101040.84;;;4.87;85.92
74895;BME280;63447;49.446;8.666;2023-02-01T07:48:29;101043.84;;;4.91;85.97
74895;BME280;63447;49.446;8.666;2023-02-01T07:50:59;101039.75;;;4.93;85.60
74895;BME280;63447;49.446;8.666;2023-02-01T07:53:24;101022.25;;;4.89;85.50
74895;BME280;63447;49.446;8.666;2023-02-01T07:55:52;101035.38;;;4.92;84.37
74895;BME280;63447;49.446;8.666;2023-02-01T07:58:17;101056.63;;;5.10;84.52
74895;BME280;63447;49.446;8.666;2023-02-01T08:00:43;101048.16;;;5.07;83.75
74895;BME280;63447;49.446;8.666;2023-02-01T08:03:26;101047.59;;;5.15;82.91
74895;BME280;63447;49.446;8.666;2023-02-01T08:05:55;101071.06;;;5.26;82.99
74895;BME280;63447;49.446;8.666;2023-02-01T08:08:22;101067.19;;;5.37;82.13
74895;BME280;63447;49.446;8.666;2023-02-01T08:10:48;101071.06;;;5.80;80.95
74895;BME280;63447;49.446;8.666;2023-02-01T08:13:14;101084.78;;;5.75;79.83
74895;BME280;63447;49.446;8.666;2023-02-01T08:15:39;101081.19;;;5.80;80.73
74895;BME280;63447;49.446;8.666;2023-02-01T08:18:07;101092.69;;;5.92;82.66
74895;BME280;63447;49.446;8.666;2023-02-01T08:20:36;101083.00;;;6.05;80.05
74895;BME280;63447;49.446;8.666;2023-02-01T08:23:07;101087.19;;;6.31;81.83
74895;BME280;63447;49.446;8.666;2023-02-01T08:25:33;101086.28;;;6.41;77.76
74895;BME280;63447;49.446;8.666;2023-02-01T08:28:00;101087.41;;;6.40;78.48
74895;BME280;63447;49.446;8.666;2023-02-01T08:30:25;101088.44;;;6.49;77.43
74895;BME280;63447;49.446;8.666;2023-02-01T08:32:52;101098.44;;;6.30;77.78
74895;BME280;63447;49.446;8.666;2023-02-01T08:35:20;101091.97;;;6.16;77.72
74895;BME280;63447;49.446;8.666;2023-02-01T08:37:46;101100.00;;;6.02;79.40
74895;BME280;63447;49.446;8.666;2023-02-01T08:40:11;101102.81;;;5.92;78.95
74895;BME280;63447;49.446;8.666;2023-02-01T08:42:41;101079.38;;;5.65;79.66
74895;BME280;63447;49.446;8.666;2023-02-01T08:45:25;101102.53;;;5.83;79.72
74895;BME280;63447;49.446;8.666;2023-02-01T08:47:51;101091.84;;;5.87;80.52
74895;BME280;63447;49.446;8.666;2023-02-01T08:50:18;101078.19;;;5.82;80.64
74895;BME280;63447;49.446;8.666;2023-02-01T08:52:44;101071.72;;;5.62;81.69
74895;BME280;63447;49.446;8.666;2023-02-01T08:55:11;101077.75;;;5.64;81.90
74895;BME280;63447;49.446;8.666;2023-02-01T08:57:36;101061.38;;;5.49;81.23
74895;BME280;63447;49.446;8.666;2023-02-01T09:00:03;101091.72;;;5.63;82.08
74895;BME280;63447;49.446;8.666;2023-02-01T09:02:29;101085.34;;;5.72;81.14
74895;BME280;63447;49.446;8.666;2023-02-01T09:04:55;101097.09;;;5.78;81.23
74895;BME280;63447;49.446;8.666;2023-02-01T09:07:21;101092.22;;;5.70;81.84
74895;BME280;63447;49.446;8.666;2023-02-01T09:09:48;101093.03;;;5.70;81.72
74895;BME280;63447;49.446;8.666;2023-02-01T09:12:14;101090.59;;;5.69;81.40
74895;BME280;63447;49.446;8.666;2023-02-01T09:14:44;101083.13;;;5.74;80.86
74895;BME280;63447;49.446;8.666;2023-02-01T09:17:09;101098.44;;;5.80;80.18
74895;BME280;63447;49.446;8.666;2023-02-01T09:19:34;101101.72;;;5.83;80.78
74895;BME280;63447;49.446;8.666;2023-02-01T09:22:00;101107.75;;;5.85;79.69
74895;BME280;63447;49.446;8.666;2023-02-01T09:24:25;101106.91;;;5.94;78.23
74895;BME280;63447;49.446;8.666;2023-02-01T09:26:50;101095.88;;;6.04;77.57
74895;BME280;63447;49.446;8.666;2023-02-01T09:29:16;101101.00;;;6.16;77.10
74895;BME280;63447;49.446;8.666;2023-02-01T09:31:42;101111.31;;;6.29;76.28
74895;BME280;63447;49.446;8.666;2023-02-01T09:34:07;101116.72;;;6.39;76.36
74895;BME280;63447;49.446;8.666;2023-02-01T09:36:34;101114.81;;;6.40;75.61
74895;BME280;63447;49.446;8.666;2023-02-01T09:39:00;101117.50;;;6.45;74.41
74895;BME280;63447;49.446;8.666;2023-02-01T09:47:20;101110.53;;;6.58;72.41
74895;BME280;63447;49.446;8.666;2023-02-01T09:50:00;101113.03;;;6.54;73.51
74895;BME280;63447;49.446;8.666;2023-02-01T09:52:32;101123.44;;;6.57;72.32
74895;BME280;63447;49.446;8.666;2023-02-01T09:55:30;101137.19;;;6.52;72.97
74895;BME280;63447;49.446;8.666;2023-02-01T10:00:54;101139.44;;;6.45;72.06
74895;BME280;63447;49.446;8.666;2023-02-01T10:03:34;101146.28;;;6.47;73.08
74895;BME280;63447;49.446;8.666;2023-02-01T10:06:22;101159.63;;;6.54;72.37
74895;BME280;63447;49.446;8.666;2023-02-01T10:08:59;101164.28;;;6.59;73.12
74895;BME280;63447;49.446;8.666;2023-02-01T10:17:02;101148.03;;;6.28;70.19
74895;BME280;63447;49.446;8.666;2023-02-01T10:22:43;101168.22;;;6.47;71.62
74895;BME280;63447;49.446;8.666;2023-02-01T10:27:49;101170.94;;;6.47;70.22
74895;BME280;63447;49.446;8.666;2023-02-01T10:30:25;101169.31;;;6.46;70.40
74895;BME280;63447;49.446;8.666;2023-02-01T10:32:57;101177.75;;;6.50;69.93
74895;BME280;63447;49.446;8.666;2023-02-01T10:35:33;101175.38;;;6.43;69.54
74895;BME280;63447;49.446;8.666;2023-02-01T10:38:09;101137.63;;;6.30;68.80
74895;BME280;63447;49.446;8.666;2023-02-01T10:40:39;101136.78;;;6.30;67.81
74895;BME280;63447;49.446;8.666;2023-02-01T10:43:09;101151.84;;;6.32;68.46
74895;BME280;63447;49.446;8.666;2023-02-01T10:45:34;101166.91;;;6.35;69.96
74895;BME280;63447;49.446;8.666;2023-02-01T10:48:05;101153.84;;;6.22;69.85
74895;BME280;63447;49.446;8.666;2023-02-01T10:50:53;101152.97;;;6.31;67.66
74895;BME280;63447;49.446;8.666;2023-02-01T10:53:32;101152.38;;;6.34;68.86
74895;BME280;63447;49.446;8.666;2023-02-01T10:56:06;101153.50;;;6.33;68.03
74895;BME280;63447;49.446;8.666;2023-02-01T10:58:32;101157.88;;;6.34;69.62
74895;BME280;63447;49.446;8.666;2023-02-01T11:00:59;101155.94;;;6.35;69.10
74895;BME280;63447;49.446;8.666;2023-02-01T11:06:24;101139.75;;;6.38;68.26
74895;BME280;63447;49.446;8.666;2023-02-01T11:09:23;101136.75;;;6.35;68.79
74895;BME280;63447;49.446;8.666;2023-02-01T11:14:39;101118.91;;;6.42;66.72
74895;BME280;63447;49.446;8.666;2023-02-01T11:17:18;101109.03;;;6.41;66.83
74895;BME280;63447;49.446;8.666;2023-02-01T11:19:58;101119.16;;;6.46;67.01
74895;BME280;63447;49.446;8.666;2023-02-01T11:22:25;101107.94;;;6.42;67.06
74895;BME280;63447;49.446;8.666;2023-02-01T11:24:54;101117.75;;;6.49;67.74
74895;BME280;63447;49.446;8.666;2023-02-01T11:27:21;101097.25;;;6.41;68.94
74895;BME280;63447;49.446;8.666;2023-02-01T11:29:51;101110.03;;;6.51;67.91
74895;BME280;63447;49.446;8.666;2023-02-01T11:32:19;101105.09;;;6.53;67.75
74895;BME280;63447;49.446;8.666;2023-02-01T11:37:18;101105.16;;;6.47;68.43
74895;BME280;63447;49.446;8.666;2023-02-01T11:39:56;101098.78;;;6.52;68.33
74895;BME280;63447;49.446;8.666;2023-02-01T11:42:25;101100.09;;;6.60;66.41
74895;BME280;63447;49.446;8.666;2023-02-01T11:44:51;101081.81;;;6.50;66.14
74895;BME280;63447;49.446;8.666;2023-02-01T11:47:41;101076.69;;;6.43;65.98
74895;BME280;63447;49.446;8.666;2023-02-01T11:55:56;101089.72;;;6.57;65.66
74895;BME280;63447;49.446;8.666;2023-02-01T12:07:10;101068.50;;;6.38;68.88
74895;BME280;63447;49.446;8.666;2023-02-01T12:18:06;101104.50;;;6.61;69.78
74895;BME280;63447;49.446;8.666;2023-02-01T12:20:59;101093.81;;;6.59;67.18
74895;BME280;63447;49.446;8.666;2023-02-01T12:23:40;101096.84;;;6.58;67.30
74895;BME280;63447;49.446;8.666;2023-02-01T12:26:45;101095.19;;;6.57;68.67
74895;BME280;63447;49.446;8.666;2023-02-01T12:32:20;101088.59;;;6.58;67.43
74895;BME280;63447;49.446;8.666;2023-02-01T12:35:13;101084.47;;;6.60;65.79
74895;BME280;63447;49.446;8.666;2023-02-01T12:38:12;101085.03;;;6.57;66.31
74895;BME280;63447;49.446;8.666;2023-02-01T12:43:38;101079.28;;;6.59;66.20
74895;BME280;63447;49.446;8.666;2023-02-01T12:46:23;101058.31;;;6.44;66.77
74895;BME280;63447;49.446;8.666;2023-02-01T12:49:16;101076.28;;;6.55;66.42
74895;BME280;63447;49.446;8.666;2023-02-01T12:51:46;101068.91;;;6.51;66.72
74895;BME280;63447;49.446;8.666;2023-02-01T12:56:57;101051.97;;;6.49;67.37
74895;BME280;63447;49.446;8.666;2023-02-01T12:59:31;101053.44;;;6.65;66.63
74895;BME280;63447;49.446;8.666;2023-02-01T13:02:11;101054.72;;;6.49;68.97
74895;BME280;63447;49.446;8.666;2023-02-01T13:07:39;101045.59;;;6.53;67.52
74895;BME280;63447;49.446;8.666;2023-02-01T13:10:21;101051.56;;;6.60;66.85
74895;BME280;63447;49.446;8.666;2023-02-01T13:12:54;101045.72;;;6.43;67.88
74895;BME280;63447;49.446;8.666;2023-02-01T13:15:31;101036.63;;;6.47;67.12
74895;BME280;63447;49.446;8.666;2023-02-01T13:18:02;101045.59;;;6.53;66.85
74895;BME280;63447;49.446;8.666;2023-02-01T13:20:36;101026.22;;;6.44;65.18
74895;BME280;63447;49.446;8.666;2023-02-01T13:23:28;101050.19;;;6.63;64.45
74895;BME280;63447;49.446;8.666;2023-02-01T13:25:55;101038.19;;;6.54;64.80
74895;BME280;63447;49.446;8.666;2023-02-01T13:28:28;101026.13;;;6.55;65.30
74895;BME280;63447;49.446;8.666;2023-02-01T13:34:36;101025.53;;;6.58;65.18
74895;BME280;63447;49.446;8.666;2023-02-01T13:37:05;101028.63;;;6.51;64.56
74895;BME280;63447;49.446;8.666;2023-02-01T13:42:18;101035.75;;;6.52;65.81
74895;BME280;63447;49.446;8.666;2023-02-01T13:44:49;101023.53;;;6.39;66.32
74895;BME280;63447;49.446;8.666;2023-02-01T13:47:39;101021.09;;;6.38;65.27
74895;BME280;63447;49.446;8.666;2023-02-01T13:50:20;101001.06;;;6.37;65.83
74895;BME280;63447;49.446;8.666;2023-02-01T13:53:03;101026.69;;;6.52;65.70
74895;BME280;63447;49.446;8.666;2023-02-01T13:55:39;101025.88;;;6.51;65.72
74895;BME280;63447;49.446;8.666;2023-02-01T13:58:36;101024.03;;;6.46;65.66
74895;BME280;63447;49.446;8.666;2023-02-01T14:03:48;101023.09;;;6.56;65.38
74895;BME280;63447;49.446;8.666;2023-02-01T14:06:36;101026.66;;;6.57;64.44
74895;BME280;63447;49.446;8.666;2023-02-01T14:09:32;101023.66;;;6.53;65.90
74895;BME280;63447;49.446;8.666;2023-02-01T14:15:23;101019.69;;;6.40;65.41
74895;BME280;63447;49.446;8.666;2023-02-01T14:17:52;101019.38;;;6.47;64.83
74895;BME280;63447;49.446;8.666;2023-02-01T14:20:43;101029.38;;;6.57;65.21
74895;BME280;63447;49.446;8.666;2023-02-01T14:23:16;101021.91;;;6.38;64.67
74895;BME280;63447;49.446;8.666;2023-02-01T14:25:43;101028.94;;;6.50;65.03
74895;BME280;63447;49.446;8.666;2023-02-01T14:28:24;101027.50;;;6.52;64.52
74895;BME280;63447;49.446;8.666;2023-02-01T14:30:54;101028.34;;;6.53;64.99
74895;BME280;63447;49.446;8.666;2023-02-01T14:33:27;101030.66;;;6.40;64.65
74895;BME280;63447;49.446;8.666;2023-02-01T14:36:06;101037.44;;;6.48;65.07
74895;BME280;63447;49.446;8.666;2023-02-01T14:38:33;101034.91;;;6.52;64.47
74895;BME280;63447;49.446;8.666;2023-02-01T14:41:24;101026.75;;;6.46;64.75
74895;BME280;63447;49.446;8.666;2023-02-01T14:47:05;101041.75;;;6.54;64.46
74895;BME280;63447;49.446;8.666;2023-02-01T14:50:54;101060.13;;;6.54;64.63
74895;BME280;63447;49.446;8.666;2023-02-01T14:58:05;101033.16;;;6.66;62.32
74895;BME280;63447;49.446;8.666;2023-02-01T15:00:32;101041.09;;;6.67;63.15
74895;BME280;63447;49.446;8.666;2023-02-01T15:03:21;101033.16;;;6.66;62.91
74895;BME280;63447;49.446;8.666;2023-02-01T15:05:57;101032.66;;;6.59;63.15
74895;BME280;63447;49.446;8.666;2023-02-01T15:08:30;101033.69;;;6.68;63.50
74895;BME280;63447;49.446;8.666;2023-02-01T15:11:06;101039.16;;;6.68;63.89
74895;BME280;63447;49.446;8.666;2023-02-01T15:13:33;101038.75;;;6.79;63.01
74895;BME280;63447;49.446;8.666;2023-02-01T15:18:34;101036.31;;;6.78;62.93
74895;BME280;63447;49.446;8.666;2023-02-01T15:21:04;101032.56;;;6.69;62.69
74895;BME280;63447;49.446;8.666;2023-02-01T15:23:31;101042.41;;;6.75;63.06
74895;BME280;63447;49.446;8.666;2023-02-01T15:26:02;101034.78;;;6.67;63.29